createdAt,value
2023-03-21T00:01:57.290Z,26.20
2023-03-21T00:04:25.965Z,25.40
2023-03-21T00:06:53.665Z,27.10
2023-03-21T00:09:21.526Z,27.90
2023-03-21T00:11:49.329Z,27.20
2023-03-21T00:14:20.093Z,27.10
2023-03-21T00:16:52.396Z,21.00
2023-03-21T00:19:21.321Z,22.70
2023-03-21T00:22:08.795Z,21.20
2023-03-21T00:24:37.144Z,21.80
2023-03-21T00:29:53.015Z,24.00
2023-03-21T00:32:21.445Z,25.30
2023-03-21T00:35:40.783Z,20.40
2023-03-21T00:37:37.824Z,25.60
2023-03-21T00:40:16.209Z,23.70
2023-03-21T00:42:47.206Z,20.80
2023-03-21T00:45:16.792Z,22.30
2023-03-21T00:47:44.522Z,25.70
2023-03-21T00:50:12.427Z,25.50
2023-03-21T00:52:41.276Z,27.00
2023-03-21T00:55:14.039Z,23.50
2023-03-21T00:57:45.316Z,21.80
2023-03-21T01:00:15.963Z,24.80
2023-03-21T01:03:14.085Z,25.70
2023-03-21T01:06:04.482Z,32.20
2023-03-21T01:08:54.788Z,26.00
2023-03-21T01:11:24.751Z,26.20
2023-03-21T01:13:59.634Z,28.80
2023-03-21T01:16:32.239Z,29.40
2023-03-21T01:19:01.168Z,29.30
2023-03-21T01:21:29.653Z,30.50
2023-03-21T01:23:57.450Z,28.60
2023-03-21T01:26:25.416Z,27.80
2023-03-21T01:28:53.027Z,29.10
2023-03-21T01:31:20.807Z,26.60
2023-03-21T01:33:48.481Z,26.30
2023-03-21T01:36:20.465Z,29.50
2023-03-21T01:38:50.791Z,25.10
2023-03-21T01:41:20.116Z,27.60
2023-03-21T01:43:48.108Z,29.80
2023-03-21T01:46:47.845Z,29.00
2023-03-21T01:49:34.338Z,25.30
2023-03-21T01:52:12.164Z,29.10
2023-03-21T01:54:41.716Z,26.60
2023-03-21T01:57:12.369Z,28.40
2023-03-21T01:59:50.456Z,28.30
2023-03-21T02:02:24.241Z,28.00
2023-03-21T02:04:56.180Z,29.80
2023-03-21T02:07:35.741Z,30.40
2023-03-21T02:10:05.412Z,27.90
2023-03-21T02:12:33.027Z,26.40
2023-03-21T02:15:00.743Z,28.60
2023-03-21T02:17:49.058Z,28.20
2023-03-21T02:20:41.837Z,26.50
2023-03-21T02:23:49.406Z,31.20
2023-03-21T02:26:36.139Z,25.90
2023-03-21T02:29:26.359Z,26.90
2023-03-21T02:32:18.095Z,32.20
2023-03-21T02:35:03.112Z,28.30
2023-03-21T02:37:38.404Z,35.40
2023-03-21T02:40:11.167Z,33.50
2023-03-21T02:42:48.890Z,29.20
2023-03-21T02:45:26.021Z,29.30
2023-03-21T02:47:57.795Z,31.60
2023-03-21T02:50:27.526Z,32.10
2023-03-21T02:52:55.203Z,29.70
2023-03-21T02:55:25.882Z,27.50
2023-03-21T02:57:54.372Z,30.70
2023-03-21T03:00:24.656Z,29.50
2023-03-21T03:03:06.354Z,26.00
2023-03-21T03:05:40.723Z,28.20
2023-03-21T03:08:26.513Z,32.40
2023-03-21T03:11:09.284Z,30.70
2023-03-21T03:13:55.365Z,32.40
2023-03-21T03:16:37.775Z,32.20
2023-03-21T03:19:09.002Z,28.30
2023-03-21T03:21:52.197Z,29.20
2023-03-21T03:24:36.544Z,29.80
2023-03-21T03:27:10.592Z,32.90
2023-03-21T03:29:39.339Z,29.70
2023-03-21T03:32:18.436Z,31.40
2023-03-21T03:37:20.706Z,33.60
2023-03-21T03:40:06.458Z,32.40
2023-03-21T03:42:46.393Z,36.90
2023-03-21T03:45:14.102Z,33.10
2023-03-21T03:47:57.144Z,35.70
2023-03-21T03:50:28.984Z,35.90
2023-03-21T03:53:16.266Z,27.70
2023-03-21T03:55:46.241Z,36.10
2023-03-21T03:58:22.189Z,35.20
2023-03-21T04:00:52.754Z,38.20
2023-03-21T04:03:20.785Z,36.60
2023-03-21T04:05:48.425Z,41.50
2023-03-21T04:08:16.397Z,37.10
2023-03-21T04:10:44.446Z,34.70
2023-03-21T04:13:12.160Z,38.30
2023-03-21T04:15:39.780Z,34.50
2023-03-21T04:18:07.361Z,39.00
2023-03-21T04:20:43.236Z,34.70
2023-03-21T04:23:11.332Z,35.10
2023-03-21T04:25:47.580Z,35.90
2023-03-21T04:28:22.319Z,32.60
2023-03-21T04:31:01.376Z,37.40
2023-03-21T04:33:32.725Z,36.60
2023-03-21T04:36:00.351Z,35.60
2023-03-21T04:38:31.035Z,47.00
2023-03-21T04:40:58.731Z,39.50
2023-03-21T04:43:26.395Z,38.50
2023-03-21T04:45:54.526Z,38.50
2023-03-21T04:48:24.706Z,37.30
2023-03-21T04:50:52.385Z,45.30
2023-03-21T04:53:19.976Z,41.50
2023-03-21T04:55:49.035Z,41.40
2023-03-21T04:58:20.327Z,40.10
2023-03-21T05:00:47.983Z,40.50
2023-03-21T05:03:19.997Z,41.10
2023-03-21T05:05:47.912Z,44.20
2023-03-21T05:08:15.683Z,48.30
2023-03-21T05:10:43.477Z,41.70
2023-03-21T05:13:11.113Z,38.60
2023-03-21T05:15:39.099Z,34.10
2023-03-21T05:18:11.075Z,41.80
2023-03-21T05:20:42.916Z,45.90
2023-03-21T05:23:11.725Z,45.80
2023-03-21T05:25:40.171Z,57.80
2023-03-21T05:28:08.112Z,54.90
2023-03-21T05:30:35.855Z,45.10
2023-03-21T05:33:03.604Z,43.50
2023-03-21T05:35:31.231Z,36.30
2023-03-21T05:37:58.915Z,31.00
2023-03-21T05:40:26.502Z,35.90
2023-03-21T05:42:54.082Z,27.80
2023-03-21T05:45:21.805Z,27.40
2023-03-21T05:47:49.508Z,29.80
2023-03-21T05:50:17.286Z,25.90
2023-03-21T05:52:44.981Z,27.40
2023-03-21T05:55:12.609Z,28.90
2023-03-21T05:57:41.032Z,29.60
2023-03-21T06:00:09.667Z,26.30
2023-03-21T06:02:38.032Z,40.00
2023-03-21T06:05:06.340Z,30.30
2023-03-21T06:07:34.363Z,39.90
2023-03-21T06:10:01.946Z,40.60
2023-03-21T06:12:29.655Z,65.40
2023-03-21T06:14:57.375Z,60.00
2023-03-21T06:17:25.043Z,60.70
2023-03-21T06:19:52.651Z,57.90
2023-03-21T06:22:20.359Z,65.90
2023-03-21T06:24:48.368Z,84.60
2023-03-21T06:27:16.124Z,77.20
2023-03-21T06:29:45.996Z,58.20
2023-03-21T06:32:13.586Z,56.20
2023-03-21T06:34:41.231Z,54.30
2023-03-21T06:37:08.978Z,44.00
2023-03-21T06:39:36.656Z,36.30
2023-03-21T06:42:04.270Z,39.10
2023-03-21T06:44:32.140Z,37.20
2023-03-21T06:46:59.728Z,44.00
2023-03-21T06:49:27.581Z,33.70
2023-03-21T06:51:55.751Z,33.60
2023-03-21T06:54:23.517Z,31.30
2023-03-21T06:56:54.354Z,32.20
2023-03-21T06:59:22.282Z,33.90
2023-03-21T07:01:52.411Z,33.30
2023-03-21T07:04:20.310Z,34.60
2023-03-21T07:06:48.271Z,38.90
2023-03-21T07:09:18.010Z,33.30
2023-03-21T07:11:45.916Z,32.50
2023-03-21T07:14:13.511Z,33.10
2023-03-21T07:16:41.281Z,31.70
2023-03-21T07:19:09.109Z,31.20
2023-03-21T07:21:36.929Z,33.30
2023-03-21T07:24:04.595Z,28.00
2023-03-21T07:26:32.191Z,30.90
2023-03-21T07:29:00.028Z,26.80
2023-03-21T07:31:27.745Z,30.90
2023-03-21T07:33:55.635Z,33.80
2023-03-21T07:36:23.300Z,29.70
2023-03-21T07:38:50.921Z,30.80
2023-03-21T07:41:18.482Z,30.00
2023-03-21T07:43:46.689Z,26.50
2023-03-21T07:46:14.339Z,30.20
2023-03-21T07:48:42.075Z,32.30
2023-03-21T07:51:10.667Z,29.70
2023-03-21T07:53:38.307Z,34.20
2023-03-21T07:56:06.368Z,30.80
2023-03-21T07:58:34.642Z,33.50
2023-03-21T08:01:02.388Z,35.50
2023-03-21T08:03:31.587Z,32.60
2023-03-21T08:06:01.404Z,38.80
2023-03-21T08:08:29.602Z,33.10
2023-03-21T08:10:57.230Z,34.40
2023-03-21T08:13:26.138Z,37.60
2023-03-21T08:15:53.726Z,33.90
2023-03-21T08:18:21.497Z,30.40
2023-03-21T08:20:53.508Z,29.20
2023-03-21T08:23:21.581Z,28.60
2023-03-21T08:25:53.251Z,30.50
2023-03-21T08:28:21.357Z,33.10
2023-03-21T08:30:49.278Z,33.40
2023-03-21T08:33:18.929Z,32.40
2023-03-21T08:35:47.414Z,34.00
2023-03-21T08:38:15.061Z,27.80
2023-03-21T08:40:43.323Z,35.90
2023-03-21T08:43:12.703Z,28.00
2023-03-21T08:45:42.048Z,28.80
2023-03-21T08:48:09.755Z,31.90
2023-03-21T08:50:37.432Z,27.20
2023-03-21T08:53:05.290Z,29.60
2023-03-21T08:55:33.359Z,30.30
2023-03-21T08:58:02.045Z,28.50
2023-03-21T09:00:29.732Z,30.00
2023-03-21T09:02:58.936Z,31.10
2023-03-21T09:05:28.356Z,28.20
2023-03-21T09:07:56.030Z,30.10
2023-03-21T09:10:23.667Z,33.60
2023-03-21T09:12:53.312Z,33.70
2023-03-21T09:15:24.455Z,30.30
2023-03-21T09:17:58.382Z,30.50
2023-03-21T09:20:31.198Z,27.10
2023-03-21T09:22:59.282Z,33.70
2023-03-21T09:25:31.562Z,29.00
2023-03-21T09:28:00.565Z,24.10
2023-03-21T09:30:29.484Z,27.90
2023-03-21T09:32:59.608Z,23.90
2023-03-21T09:35:28.419Z,23.90
2023-03-21T09:37:59.632Z,27.60
2023-03-21T09:41:20.273Z,25.30
2023-03-21T09:44:11.928Z,29.40
2023-03-21T09:49:20.543Z,23.70
2023-03-21T09:51:52.935Z,27.40
2023-03-21T09:54:26.993Z,27.30
2023-03-21T09:56:56.624Z,26.90
2023-03-21T09:59:45.054Z,31.60
2023-03-21T10:02:38.825Z,25.70
2023-03-21T10:05:13.229Z,26.90
2023-03-21T10:07:42.976Z,19.40
2023-03-21T10:10:17.990Z,26.60
2023-03-21T10:12:46.198Z,28.30
2023-03-21T10:15:18.786Z,25.80
2023-03-21T10:17:53.252Z,29.10
2023-03-21T10:20:23.058Z,24.70
2023-03-21T10:22:55.119Z,25.00
2023-03-21T10:25:33.786Z,21.30
2023-03-21T10:28:01.982Z,23.00
2023-03-21T10:30:40.995Z,25.50
2023-03-21T10:35:40.056Z,24.60
2023-03-21T10:38:13.169Z,20.50
2023-03-21T10:40:41.010Z,19.50
2023-03-21T10:43:27.473Z,21.40
2023-03-21T10:45:56.016Z,24.60
2023-03-21T10:48:23.895Z,18.10
2023-03-21T10:50:53.066Z,26.40
2023-03-21T10:53:22.984Z,21.20
2023-03-21T10:55:54.776Z,22.20
2023-03-21T10:58:29.355Z,22.80
2023-03-21T11:00:58.354Z,21.50
2023-03-21T11:03:36.565Z,21.40
2023-03-21T11:06:31.304Z,18.50
2023-03-21T11:09:14.703Z,25.60
2023-03-21T11:12:06.859Z,21.90
2023-03-21T11:14:42.080Z,23.30
2023-03-21T11:17:29.440Z,18.60
2023-03-21T11:20:01.811Z,17.60
2023-03-21T11:22:30.978Z,17.70
2023-03-21T11:25:00.518Z,15.90
2023-03-21T11:27:29.456Z,15.90
2023-03-21T11:29:58.675Z,14.20
2023-03-21T11:32:32.089Z,16.00
2023-03-21T11:35:19.871Z,16.60
2023-03-21T11:37:53.228Z,19.00
2023-03-21T11:40:26.584Z,16.70
2023-03-21T11:42:54.848Z,14.60
2023-03-21T11:45:24.423Z,13.90
2023-03-21T11:47:54.306Z,14.60
2023-03-21T11:50:36.407Z,13.10
2023-03-21T11:53:04.303Z,17.40
2023-03-21T11:55:33.775Z,14.70
2023-03-21T11:58:16.408Z,18.10
2023-03-21T12:00:54.706Z,16.60
2023-03-21T12:03:38.162Z,16.20
2023-03-21T12:06:17.242Z,15.80
2023-03-21T12:08:57.208Z,32.60
2023-03-21T12:11:33.583Z,27.30
2023-03-21T12:14:25.758Z,30.60
2023-03-21T12:17:37.168Z,26.50
2023-03-21T12:20:21.560Z,18.10
2023-03-21T12:23:06.335Z,26.30
2023-03-21T12:25:39.909Z,25.90
2023-03-21T12:28:38.502Z,21.90
2023-03-21T12:31:18.113Z,40.50
2023-03-21T12:34:08.847Z,25.50
2023-03-21T12:37:13.914Z,28.40
2023-03-21T12:39:41.882Z,28.40
2023-03-21T12:42:31.049Z,27.10
2023-03-21T12:45:08.939Z,25.40
2023-03-21T12:47:43.656Z,25.10
2023-03-21T12:50:19.123Z,18.70
2023-03-21T12:52:49.825Z,24.70
2023-03-21T12:55:31.589Z,21.90
2023-03-21T12:58:19.347Z,23.80
2023-03-21T13:00:57.478Z,28.50
2023-03-21T13:03:40.299Z,23.10
2023-03-21T13:06:10.722Z,24.00
2023-03-21T13:08:41.954Z,36.50
2023-03-21T13:11:12.875Z,23.40
2023-03-21T13:14:00.791Z,20.10
2023-03-21T13:16:36.625Z,49.30
2023-03-21T13:19:13.342Z,23.00
2023-03-21T13:21:53.025Z,26.50
2023-03-21T13:24:32.442Z,35.70
2023-03-21T13:27:04.197Z,27.40
2023-03-21T13:29:50.151Z,24.50
2023-03-21T13:32:38.772Z,21.90
2023-03-21T13:35:16.982Z,22.40
2023-03-21T13:37:53.088Z,24.60
2023-03-21T13:40:39.017Z,24.20
2023-03-21T13:43:33.217Z,26.80
2023-03-21T13:46:35.871Z,22.50
2023-03-21T13:49:14.857Z,29.50
2023-03-21T13:51:46.491Z,18.80
2023-03-21T13:54:14.107Z,53.60
2023-03-21T13:56:45.881Z,33.80
2023-03-21T13:59:38.986Z,31.40
2023-03-21T14:02:33.394Z,44.00
2023-03-21T14:05:05.599Z,23.40
2023-03-21T14:07:43.169Z,32.40
2023-03-21T14:10:23.062Z,26.80
2023-03-21T14:12:51.225Z,19.90
2023-03-21T14:15:21.136Z,31.70
2023-03-21T14:17:50.765Z,39.20
2023-03-21T14:20:29.657Z,30.30
2023-03-21T14:22:57.550Z,24.30
2023-03-21T14:25:31.266Z,21.70
2023-03-21T14:28:01.478Z,26.40
2023-03-21T14:30:38.152Z,29.00
2023-03-21T14:33:29.473Z,31.50
2023-03-21T14:36:02.935Z,20.80
2023-03-21T14:38:35.739Z,18.20
2023-03-21T14:41:03.723Z,22.10
2023-03-21T14:43:34.090Z,20.70
2023-03-21T14:46:01.824Z,22.60
2023-03-21T14:48:31.174Z,18.60
2023-03-21T14:51:04.079Z,19.90
2023-03-21T14:53:33.771Z,20.60
2023-03-21T14:56:09.178Z,18.60
2023-03-21T14:58:41.180Z,24.70
2023-03-21T15:01:14.701Z,22.00
2023-03-21T15:03:44.696Z,19.70
2023-03-21T15:06:13.223Z,21.10
2023-03-21T15:08:41.083Z,18.30
2023-03-21T15:11:12.480Z,16.40
2023-03-21T15:14:00.067Z,18.70
2023-03-21T15:16:28.095Z,15.10
2023-03-21T15:18:55.980Z,17.50
2023-03-21T15:21:27.820Z,20.10
2023-03-21T15:23:58.136Z,17.50
2023-03-21T15:26:26.233Z,16.70
2023-03-21T15:28:58.118Z,16.80
2023-03-21T15:31:29.947Z,24.50
2023-03-21T15:33:57.629Z,25.40
2023-03-21T15:36:28.137Z,27.90
2023-03-21T15:38:56.004Z,25.00
2023-03-21T15:41:23.645Z,24.90
2023-03-21T15:43:56.137Z,20.00
2023-03-21T15:46:46.377Z,21.20
2023-03-21T15:49:14.723Z,17.10
2023-03-21T15:52:15.369Z,17.30
2023-03-21T15:54:44.947Z,14.20
2023-03-21T15:57:24.041Z,14.50
2023-03-21T16:02:23.969Z,15.80
2023-03-21T16:05:24.271Z,16.50
2023-03-21T16:07:52.260Z,17.60
2023-03-21T16:10:29.942Z,16.50
2023-03-21T16:12:58.399Z,21.30
2023-03-21T16:15:26.472Z,25.70
2023-03-21T16:17:56.610Z,25.50
2023-03-21T16:20:26.327Z,23.50
2023-03-21T16:22:53.958Z,22.90
2023-03-21T16:25:21.934Z,21.70
2023-03-21T16:27:49.800Z,19.30
2023-03-21T16:30:20.331Z,22.80
2023-03-21T16:32:49.929Z,21.30
2023-03-21T16:35:17.655Z,14.20
2023-03-21T16:37:47.099Z,17.40
2023-03-21T16:40:24.063Z,14.70
2023-03-21T16:42:52.095Z,17.20
2023-03-21T16:45:20.000Z,18.10
2023-03-21T16:47:47.989Z,17.50
2023-03-21T16:50:26.061Z,17.50
2023-03-21T16:52:54.922Z,22.20
2023-03-21T16:55:23.360Z,25.50
2023-03-21T16:57:55.561Z,20.60
2023-03-21T17:00:30.739Z,20.50
2023-03-21T17:03:02.602Z,24.20
2023-03-21T17:05:30.911Z,22.70
2023-03-21T17:08:02.349Z,26.20
2023-03-21T17:10:30.980Z,24.10
2023-03-21T17:12:58.720Z,23.10
2023-03-21T17:15:26.405Z,25.50
2023-03-21T17:17:55.785Z,28.60
2023-03-21T17:20:25.782Z,29.80
2023-03-21T17:22:53.771Z,34.70
2023-03-21T17:25:21.449Z,31.30
2023-03-21T17:27:49.469Z,34.70
2023-03-21T17:30:20.783Z,30.80
2023-03-21T17:32:49.858Z,30.00
2023-03-21T17:35:17.795Z,26.80
2023-03-21T17:37:51.502Z,28.30
2023-03-21T17:40:24.339Z,34.80
2023-03-21T17:45:20.561Z,31.40
2023-03-21T17:47:49.119Z,32.30
2023-03-21T17:50:20.181Z,35.90
2023-03-21T17:52:50.298Z,24.50
2023-03-21T17:55:21.321Z,34.00
2023-03-21T17:57:49.352Z,29.00
2023-03-21T18:00:23.044Z,26.40
2023-03-21T18:02:50.796Z,28.40
2023-03-21T18:05:19.229Z,38.00
2023-03-21T18:08:09.671Z,43.60
2023-03-21T18:10:35.783Z,49.00
2023-03-21T18:13:03.585Z,48.20
2023-03-21T18:15:31.504Z,52.90
2023-03-21T18:17:59.685Z,43.30
2023-03-21T18:20:49.769Z,56.40
2023-03-21T18:23:16.076Z,55.30
2023-03-21T18:25:44.292Z,49.40
2023-03-21T18:28:13.004Z,47.60
2023-03-21T18:31:00.770Z,46.90
2023-03-21T18:33:30.707Z,45.90
2023-03-21T18:35:59.863Z,48.90
2023-03-21T18:38:28.464Z,53.90
2023-03-21T18:40:56.354Z,64.40
2023-03-21T18:44:01.864Z,52.50
2023-03-21T18:46:12.864Z,53.80
2023-03-21T18:48:42.516Z,54.30
2023-03-21T18:51:10.676Z,54.90
2023-03-21T18:53:38.718Z,59.60
2023-03-21T18:56:10.070Z,51.60
2023-03-21T18:58:38.655Z,55.00
2023-03-21T19:01:06.792Z,63.50
2023-03-21T19:03:37.264Z,58.80
2023-03-21T19:06:06.496Z,64.30
2023-03-21T19:08:38.731Z,52.30
2023-03-21T19:11:07.147Z,58.40
2023-03-21T19:13:35.162Z,58.20
2023-03-21T19:16:04.367Z,56.40
2023-03-21T19:18:52.981Z,59.50
2023-03-21T19:21:21.900Z,55.60
2023-03-21T19:24:22.883Z,53.50
2023-03-21T19:26:37.979Z,55.90
2023-03-21T19:29:05.830Z,56.90
2023-03-21T19:31:33.583Z,48.60
2023-03-21T19:34:01.255Z,47.60
2023-03-21T19:36:29.197Z,46.30
2023-03-21T19:38:57.352Z,45.10
2023-03-21T19:41:25.793Z,46.60
2023-03-21T19:43:55.343Z,43.40
2023-03-21T19:46:25.476Z,37.10
2023-03-21T19:48:57.125Z,40.40
2023-03-21T19:51:29.709Z,43.70
2023-03-21T19:53:58.640Z,45.20
2023-03-21T19:56:27.685Z,35.50
2023-03-21T19:58:56.071Z,40.50
2023-03-21T20:01:25.048Z,48.80
2023-03-21T20:03:53.050Z,53.20
2023-03-21T20:06:22.610Z,56.80
2023-03-21T20:09:34.072Z,53.40
2023-03-21T20:11:41.880Z,56.10
2023-03-21T20:14:09.626Z,52.10
2023-03-21T20:16:37.535Z,50.00
2023-03-21T20:19:06.024Z,58.90
2023-03-21T20:21:44.370Z,58.30
2023-03-21T20:24:16.601Z,65.50
2023-03-21T20:26:45.240Z,62.90
2023-03-21T20:30:07.030Z,69.00
2023-03-21T20:32:00.938Z,88.80
2023-03-21T20:34:30.425Z,77.00
2023-03-21T20:36:58.740Z,93.80
2023-03-21T20:39:29.446Z,105.40
2023-03-21T20:41:59.534Z,97.80
2023-03-21T20:44:51.798Z,110.60
2023-03-21T20:47:16.002Z,105.10
2023-03-21T20:49:44.187Z,103.10
2023-03-21T20:54:59.689Z,97.50
2023-03-21T20:57:27.390Z,112.50
2023-03-21T20:59:55.256Z,111.50
2023-03-21T21:02:23.817Z,124.40
2023-03-21T21:05:21.862Z,109.30
2023-03-21T21:07:42.593Z,122.00
2023-03-21T21:10:11.419Z,121.50
2023-03-21T21:12:39.529Z,132.00
2023-03-21T21:15:08.207Z,131.80
2023-03-21T21:18:03.566Z,129.60
2023-03-21T21:20:24.220Z,133.10
2023-03-21T21:22:59.742Z,126.30
2023-03-21T21:25:30.719Z,150.60
2023-03-21T21:27:58.377Z,126.90
2023-03-21T21:30:25.980Z,128.80
2023-03-21T21:32:54.183Z,145.40
2023-03-21T21:35:22.424Z,126.50
2023-03-21T21:37:51.574Z,132.10
2023-03-21T21:40:23.108Z,112.90
2023-03-21T21:42:50.880Z,111.20
2023-03-21T21:45:19.054Z,96.90
2023-03-21T21:47:47.488Z,94.80
2023-03-21T21:50:15.121Z,107.90
2023-03-21T21:52:44.025Z,89.30
2023-03-21T21:55:13.096Z,77.80
2023-03-21T21:57:41.000Z,89.00
2023-03-21T22:00:15.646Z,80.30
2023-03-21T22:02:43.264Z,91.30
2023-03-21T22:05:10.954Z,89.10
2023-03-21T22:07:39.197Z,94.00
2023-03-21T22:10:08.042Z,110.80
2023-03-21T22:12:35.678Z,127.40
2023-03-21T22:15:05.094Z,117.20
2023-03-21T22:17:33.180Z,141.20
2023-03-21T22:20:06.345Z,145.40
2023-03-21T22:22:34.699Z,130.90
2023-03-21T22:25:03.560Z,113.30
2023-03-21T22:27:31.161Z,106.40
2023-03-21T22:30:04.671Z,65.60
2023-03-21T22:32:32.680Z,86.00
2023-03-21T22:35:02.631Z,74.10
2023-03-21T22:37:31.470Z,78.10
2023-03-21T22:39:59.056Z,78.80
2023-03-21T22:42:26.886Z,79.40
2023-03-21T22:44:54.471Z,75.10
2023-03-21T22:47:22.045Z,71.20
2023-03-21T22:49:50.116Z,73.50
2023-03-21T22:52:17.737Z,76.60
2023-03-21T22:54:46.653Z,98.00
2023-03-21T22:57:14.270Z,85.70
2023-03-21T22:59:42.216Z,82.80
2023-03-21T23:02:09.807Z,84.40
2023-03-21T23:04:37.596Z,91.30
2023-03-21T23:07:05.414Z,103.50
2023-03-21T23:09:33.127Z,95.50
2023-03-21T23:12:01.221Z,87.20
2023-03-21T23:14:28.840Z,99.80
2023-03-21T23:17:00.196Z,88.40
2023-03-21T23:19:29.002Z,94.30
2023-03-21T23:21:56.949Z,98.40
2023-03-21T23:24:24.859Z,94.90
2023-03-21T23:26:52.796Z,101.90
2023-03-21T23:29:20.401Z,95.20
2023-03-21T23:31:48.046Z,95.70
2023-03-21T23:34:15.799Z,114.70
2023-03-21T23:36:43.435Z,105.50
2023-03-21T23:39:11.049Z,91.10
2023-03-21T23:41:38.851Z,108.00
2023-03-21T23:44:06.681Z,103.20
2023-03-21T23:46:34.330Z,102.90
2023-03-21T23:49:02.136Z,93.50
2023-03-21T23:51:29.934Z,92.40
2023-03-21T23:53:58.630Z,91.20
2023-03-21T23:56:26.660Z,90.00
2023-03-21T23:58:54.288Z,109.00
